createdAt,value
2022-07-27T00:01:40.610Z,2.37
2022-07-27T00:04:17.059Z,2.17
2022-07-27T00:06:44.414Z,2.40
2022-07-27T00:09:11.814Z,1.83
2022-07-27T00:11:38.618Z,2.00
2022-07-27T00:14:05.159Z,2.00
2022-07-27T00:16:32.308Z,1.83
2022-07-27T00:18:59.137Z,1.93
2022-07-27T00:21:27.005Z,1.90
2022-07-27T00:23:57.876Z,1.93
2022-07-27T00:26:24.460Z,1.97
2022-07-27T00:28:51.467Z,1.80
2022-07-27T00:31:18.217Z,1.80
2022-07-27T00:33:44.926Z,1.90
2022-07-27T00:36:11.675Z,1.90
2022-07-27T00:38:41.227Z,1.83
2022-07-27T00:41:07.801Z,2.23
2022-07-27T00:43:53.786Z,1.87
2022-07-27T00:46:21.191Z,1.90
2022-07-27T00:48:48.416Z,2.00
2022-07-27T00:51:17.464Z,1.77
2022-07-27T00:53:44.012Z,2.17
2022-07-27T00:56:10.813Z,2.70
2022-07-27T00:58:38.679Z,2.07
2022-07-27T01:01:05.692Z,2.00
2022-07-27T01:03:32.214Z,2.17
2022-07-27T01:05:59.325Z,2.10
2022-07-27T01:08:28.499Z,2.10
2022-07-27T01:10:57.271Z,2.43
2022-07-27T01:13:25.676Z,2.00
2022-07-27T01:15:53.047Z,2.13
2022-07-27T01:18:31.853Z,2.57
2022-07-27T01:21:00.239Z,1.87
2022-07-27T01:23:27.767Z,2.27
2022-07-27T01:25:55.194Z,2.10
2022-07-27T01:28:21.628Z,2.20
2022-07-27T01:30:48.221Z,2.40
2022-07-27T01:33:15.039Z,2.53
2022-07-27T01:35:41.822Z,2.30
2022-07-27T01:38:10.416Z,2.27
2022-07-27T01:40:37.420Z,2.23
2022-07-27T01:43:05.305Z,2.10
2022-07-27T01:45:32.093Z,1.97
2022-07-27T01:47:58.638Z,2.10
2022-07-27T01:50:25.293Z,2.77
2022-07-27T01:52:51.733Z,2.57
2022-07-27T01:55:18.152Z,1.83
2022-07-27T01:57:44.659Z,2.20
2022-07-27T02:00:12.209Z,2.43
2022-07-27T02:02:41.973Z,2.20
2022-07-27T02:05:11.842Z,2.10
2022-07-27T02:07:42.464Z,2.10
2022-07-27T02:10:10.294Z,2.47
2022-07-27T02:12:37.523Z,2.80
2022-07-27T02:15:05.951Z,2.30
2022-07-27T02:17:32.680Z,2.70
2022-07-27T02:19:59.467Z,2.57
2022-07-27T02:22:26.280Z,2.20
2022-07-27T02:24:53.195Z,2.20
2022-07-27T02:27:19.744Z,2.03
2022-07-27T02:29:46.227Z,2.27
2022-07-27T02:32:12.730Z,2.23
2022-07-27T02:34:39.186Z,2.20
2022-07-27T02:37:05.716Z,2.50
2022-07-27T02:39:32.207Z,2.17
2022-07-27T02:41:58.989Z,1.97
2022-07-27T02:44:25.557Z,2.20
2022-07-27T02:46:52.384Z,2.07
2022-07-27T02:49:18.906Z,2.10
2022-07-27T02:51:45.555Z,2.40
2022-07-27T02:54:12.002Z,2.20
2022-07-27T02:56:38.446Z,2.47
2022-07-27T02:59:04.906Z,2.20
2022-07-27T03:01:32.039Z,2.30
2022-07-27T03:03:58.562Z,2.27
2022-07-27T03:06:25.077Z,2.57
2022-07-27T03:08:51.624Z,2.43
2022-07-27T03:11:18.314Z,2.70
2022-07-27T03:13:45.171Z,2.37
2022-07-27T03:16:11.746Z,2.23
2022-07-27T03:18:38.375Z,2.10
2022-07-27T03:21:04.817Z,1.90
2022-07-27T03:23:33.163Z,2.10
2022-07-27T03:26:00.397Z,2.60
2022-07-27T03:28:27.157Z,2.17
2022-07-27T03:30:53.773Z,2.03
2022-07-27T03:33:21.487Z,2.30
2022-07-27T03:35:48.527Z,2.57
2022-07-27T03:38:17.552Z,2.53
2022-07-27T03:40:45.229Z,2.40
2022-07-27T03:43:11.671Z,2.33
2022-07-27T03:45:38.472Z,2.40
2022-07-27T03:48:05.331Z,2.27
2022-07-27T03:50:32.281Z,2.27
2022-07-27T03:52:59.328Z,2.40
2022-07-27T03:55:25.788Z,2.23
2022-07-27T03:57:52.641Z,2.20
2022-07-27T04:00:20.045Z,2.30
2022-07-27T04:02:46.825Z,2.27
2022-07-27T04:05:13.350Z,2.47
2022-07-27T04:07:40.693Z,2.30
2022-07-27T04:10:08.259Z,2.47
2022-07-27T04:12:39.407Z,2.30
2022-07-27T04:15:07.059Z,2.27
2022-07-27T04:17:56.547Z,2.30
2022-07-27T04:20:20.094Z,2.60
2022-07-27T04:22:46.567Z,2.60
2022-07-27T04:25:13.071Z,2.27
2022-07-27T04:27:39.574Z,2.70
2022-07-27T04:30:09.490Z,2.40
2022-07-27T04:32:36.483Z,2.40
2022-07-27T04:35:03.199Z,2.40
2022-07-27T04:37:30.331Z,2.97
2022-07-27T04:39:58.180Z,2.80
2022-07-27T04:42:24.922Z,2.90
2022-07-27T04:44:51.451Z,3.13
2022-07-27T04:47:18.058Z,2.90
2022-07-27T04:49:44.616Z,3.27
2022-07-27T04:52:11.216Z,3.73
2022-07-27T04:54:37.694Z,2.73
2022-07-27T04:57:04.353Z,2.77
2022-07-27T04:59:30.889Z,3.00
2022-07-27T05:01:57.642Z,3.27
2022-07-27T05:04:24.296Z,3.33
2022-07-27T05:06:51.227Z,3.20
2022-07-27T05:09:22.393Z,3.47
2022-07-27T05:11:51.083Z,3.30
2022-07-27T05:14:21.068Z,3.37
2022-07-27T05:16:48.767Z,3.57
2022-07-27T05:19:16.077Z,2.93
2022-07-27T05:21:43.029Z,3.77
2022-07-27T05:24:10.161Z,3.30
2022-07-27T05:26:37.182Z,3.33
2022-07-27T05:29:04.069Z,4.07
2022-07-27T05:31:30.754Z,4.20
2022-07-27T05:33:58.475Z,3.80
2022-07-27T05:36:25.829Z,3.07
2022-07-27T05:38:52.612Z,3.60
2022-07-27T05:41:24.026Z,3.40
2022-07-27T05:43:51.344Z,3.67
2022-07-27T05:46:17.955Z,3.40
2022-07-27T05:48:44.668Z,3.80
2022-07-27T05:51:11.296Z,3.50
2022-07-27T05:53:38.058Z,3.60
2022-07-27T05:56:05.123Z,3.70
2022-07-27T05:58:31.542Z,4.43
2022-07-27T06:00:58.815Z,3.90
2022-07-27T06:03:25.716Z,4.00
2022-07-27T06:05:52.563Z,4.10
2022-07-27T06:08:19.036Z,3.40
2022-07-27T06:10:45.782Z,3.47
2022-07-27T06:13:12.302Z,3.20
2022-07-27T06:15:39.757Z,3.40
2022-07-27T06:18:08.970Z,3.40
2022-07-27T06:20:35.892Z,3.63
2022-07-27T06:23:08.243Z,3.03
2022-07-27T06:25:35.749Z,2.83
2022-07-27T06:28:05.206Z,2.80
2022-07-27T06:30:32.990Z,2.53
2022-07-27T06:32:59.772Z,2.30
2022-07-27T06:35:30.206Z,2.97
2022-07-27T06:37:58.640Z,2.37
2022-07-27T06:40:28.659Z,2.73
2022-07-27T06:42:56.167Z,2.00
2022-07-27T06:45:22.627Z,2.17
2022-07-27T06:47:51.557Z,1.80
2022-07-27T06:50:20.231Z,2.30
2022-07-27T06:52:55.813Z,1.67
2022-07-27T06:55:22.260Z,1.80
2022-07-27T06:57:49.908Z,1.87
2022-07-27T07:00:16.762Z,1.57
2022-07-27T07:03:00.693Z,1.70
2022-07-27T07:05:28.466Z,1.77
2022-07-27T07:07:55.859Z,1.60
2022-07-27T07:10:24.068Z,1.50
2022-07-27T07:12:55.473Z,1.43
2022-07-27T07:15:24.513Z,1.60
2022-07-27T07:17:58.874Z,1.50
2022-07-27T07:20:25.831Z,1.60
2022-07-27T07:22:52.794Z,1.73
2022-07-27T07:25:19.834Z,1.43
2022-07-27T07:27:46.261Z,1.50
2022-07-27T07:30:12.969Z,1.70
2022-07-27T07:32:39.483Z,2.37
2022-07-27T07:35:06.836Z,2.13
2022-07-27T07:37:33.985Z,1.63
2022-07-27T07:40:25.202Z,1.93
2022-07-27T07:42:54.772Z,1.73
2022-07-27T07:45:22.823Z,1.70
2022-07-27T07:47:51.551Z,1.80
2022-07-27T07:50:18.327Z,1.57
2022-07-27T07:52:45.324Z,1.37
2022-07-27T07:55:11.854Z,1.57
2022-07-27T07:57:38.747Z,1.40
2022-07-27T08:00:07.495Z,1.43
2022-07-27T08:02:50.461Z,1.33
2022-07-27T08:05:17.115Z,1.50
2022-07-27T08:07:44.836Z,1.50
2022-07-27T08:10:13.090Z,1.40
2022-07-27T08:12:42.332Z,1.20
2022-07-27T08:15:09.982Z,1.30
2022-07-27T08:17:36.465Z,1.63
2022-07-27T08:20:04.267Z,1.33
2022-07-27T08:22:37.241Z,1.33
2022-07-27T08:25:05.251Z,1.40
2022-07-27T08:27:40.235Z,1.30
2022-07-27T08:30:08.790Z,1.27
2022-07-27T08:32:55.972Z,1.20
2022-07-27T08:35:22.950Z,1.37
2022-07-27T08:37:49.586Z,1.47
2022-07-27T08:43:05.819Z,1.30
2022-07-27T08:45:33.466Z,1.40
2022-07-27T08:48:00.307Z,1.30
2022-07-27T08:50:29.419Z,1.40
2022-07-27T08:53:00.700Z,1.10
2022-07-27T08:55:28.539Z,1.50
2022-07-27T08:57:59.108Z,1.30
2022-07-27T09:00:30.503Z,1.40
2022-07-27T09:02:57.995Z,1.40
2022-07-27T09:05:25.607Z,1.50
2022-07-27T09:08:08.173Z,1.40
2022-07-27T09:10:38.117Z,1.43
2022-07-27T09:13:18.031Z,1.20
2022-07-27T09:16:15.824Z,1.43
2022-07-27T09:18:37.515Z,1.10
2022-07-27T09:21:09.103Z,1.37
2022-07-27T09:23:35.913Z,1.30
2022-07-27T09:26:30.497Z,1.10
2022-07-27T09:29:08.395Z,1.40
2022-07-27T09:31:46.115Z,1.30
2022-07-27T09:34:25.950Z,1.40
2022-07-27T09:36:54.786Z,1.60
2022-07-27T09:39:24.492Z,1.40
2022-07-27T09:42:00.023Z,1.37
2022-07-27T09:44:43.468Z,1.30
2022-07-27T09:47:28.545Z,1.30
2022-07-27T09:50:17.419Z,1.50
2022-07-27T09:52:44.736Z,1.23
2022-07-27T09:55:11.219Z,1.53
2022-07-27T09:57:56.014Z,1.30
2022-07-27T10:00:23.876Z,1.30
2022-07-27T10:02:52.060Z,1.33
2022-07-27T10:05:21.479Z,1.27
2022-07-27T10:07:49.338Z,1.30
2022-07-27T10:10:40.956Z,1.20
2022-07-27T10:13:07.474Z,1.30
2022-07-27T10:15:34.144Z,1.27
2022-07-27T10:18:08.888Z,1.40
2022-07-27T10:20:39.621Z,1.40
2022-07-27T10:23:07.462Z,1.53
2022-07-27T10:25:37.917Z,1.33
2022-07-27T10:28:18.507Z,1.57
2022-07-27T10:30:49.409Z,1.47
2022-07-27T10:33:48.301Z,1.87
2022-07-27T10:36:17.783Z,1.30
2022-07-27T10:38:46.982Z,1.63
2022-07-27T10:41:39.932Z,1.50
2022-07-27T10:44:17.676Z,1.27
2022-07-27T10:46:46.577Z,1.40
2022-07-27T10:49:18.555Z,1.50
2022-07-27T10:51:45.421Z,1.47
2022-07-27T10:54:33.785Z,1.40
2022-07-27T10:57:04.055Z,1.40
2022-07-27T11:00:06.744Z,1.43
2022-07-27T11:02:40.742Z,1.27
2022-07-27T11:05:07.629Z,1.50
2022-07-27T11:07:44.175Z,1.50
2022-07-27T11:10:12.952Z,1.50
2022-07-27T11:12:41.736Z,1.30
2022-07-27T11:15:09.242Z,1.10
2022-07-27T11:20:23.945Z,1.13
2022-07-27T11:23:40.834Z,1.20
2022-07-27T11:25:40.951Z,1.37
2022-07-27T11:28:07.519Z,1.47
2022-07-27T11:30:34.184Z,1.30
2022-07-27T11:33:05.141Z,1.23
2022-07-27T11:35:31.730Z,1.30
2022-07-27T11:38:00.113Z,1.63
2022-07-27T11:43:14.599Z,1.40
2022-07-27T11:45:42.971Z,1.30
2022-07-27T11:48:12.409Z,1.43
2022-07-27T11:50:59.952Z,1.30
2022-07-27T11:53:27.495Z,1.40
2022-07-27T11:55:54.155Z,1.50
2022-07-27T11:58:20.655Z,1.33
2022-07-27T12:00:47.059Z,1.53
2022-07-27T12:03:23.222Z,1.50
2022-07-27T12:05:59.844Z,1.77
2022-07-27T12:08:27.281Z,1.53
2022-07-27T12:11:01.112Z,1.50
2022-07-27T12:13:35.746Z,1.40
2022-07-27T12:16:02.629Z,1.47
2022-07-27T12:18:44.932Z,1.40
2022-07-27T12:21:18.497Z,1.47
2022-07-27T12:23:54.866Z,1.57
2022-07-27T12:26:25.318Z,1.40
2022-07-27T12:29:07.596Z,1.50
2022-07-27T12:31:35.949Z,1.50
2022-07-27T12:34:06.711Z,1.33
2022-07-27T12:36:33.619Z,1.40
2022-07-27T12:39:00.589Z,1.60
2022-07-27T12:41:31.085Z,1.33
2022-07-27T12:44:16.816Z,1.57
2022-07-27T12:46:52.943Z,1.53
2022-07-27T12:49:24.885Z,1.57
2022-07-27T12:51:52.030Z,1.60
2022-07-27T12:54:18.658Z,1.30
2022-07-27T12:56:46.803Z,2.13
2022-07-27T12:59:13.732Z,1.67
2022-07-27T13:01:40.392Z,1.97
2022-07-27T13:04:06.980Z,1.60
2022-07-27T13:06:33.725Z,2.33
2022-07-27T13:09:00.562Z,1.87
2022-07-27T13:11:31.875Z,1.50
2022-07-27T13:13:58.945Z,1.30
2022-07-27T13:16:25.467Z,1.53
2022-07-27T13:18:51.973Z,1.60
2022-07-27T13:21:18.695Z,1.50
2022-07-27T13:23:46.800Z,1.40
2022-07-27T13:26:13.248Z,1.33
2022-07-27T13:28:39.732Z,1.50
2022-07-27T13:31:06.153Z,1.60
2022-07-27T13:33:32.836Z,1.50
2022-07-27T13:36:00.915Z,1.70
2022-07-27T13:38:28.900Z,1.70
2022-07-27T13:40:55.606Z,1.43
2022-07-27T13:43:22.181Z,1.80
2022-07-27T13:45:49.723Z,1.80
2022-07-27T13:48:16.589Z,1.40
2022-07-27T13:50:43.087Z,1.80
2022-07-27T13:53:09.697Z,1.50
2022-07-27T13:55:41.952Z,1.53
2022-07-27T13:58:08.399Z,1.70
2022-07-27T14:00:36.386Z,1.60
2022-07-27T14:03:02.921Z,1.63
2022-07-27T14:05:30.068Z,1.60
2022-07-27T14:07:58.153Z,1.47
2022-07-27T14:10:32.111Z,1.33
2022-07-27T14:13:07.933Z,1.63
2022-07-27T14:15:52.984Z,1.50
2022-07-27T14:18:27.560Z,1.17
2022-07-27T14:20:59.365Z,1.47
2022-07-27T14:23:27.270Z,1.57
2022-07-27T14:25:56.406Z,1.53
2022-07-27T14:28:24.086Z,1.43
2022-07-27T14:30:51.993Z,1.50
2022-07-27T14:33:18.791Z,1.67
2022-07-27T14:35:46.239Z,1.87
2022-07-27T14:38:12.960Z,1.73
2022-07-27T14:40:40.517Z,1.70
2022-07-27T14:43:07.379Z,1.80
2022-07-27T14:45:44.769Z,1.80
2022-07-27T14:48:20.354Z,2.23
2022-07-27T14:50:51.838Z,1.73
2022-07-27T14:53:18.272Z,1.70
2022-07-27T14:55:44.824Z,1.47
2022-07-27T14:58:11.529Z,1.70
2022-07-27T15:00:39.712Z,1.80
2022-07-27T15:03:07.236Z,1.73
2022-07-27T15:05:49.998Z,1.60
2022-07-27T15:08:21.553Z,1.70
2022-07-27T15:10:49.169Z,1.90
2022-07-27T15:13:17.134Z,2.10
2022-07-27T15:15:43.933Z,1.60
2022-07-27T15:18:10.510Z,1.77
2022-07-27T15:20:37.158Z,1.80
2022-07-27T15:23:04.367Z,1.60
2022-07-27T15:25:31.154Z,1.30
2022-07-27T15:27:58.189Z,2.10
2022-07-27T15:30:24.676Z,1.60
2022-07-27T15:32:51.449Z,1.60
2022-07-27T15:35:18.113Z,1.60
2022-07-27T15:37:54.049Z,1.83
2022-07-27T15:40:36.883Z,1.83
2022-07-27T15:43:22.119Z,1.90
2022-07-27T15:45:50.761Z,2.00
2022-07-27T15:48:19.704Z,1.77
2022-07-27T15:50:49.858Z,1.70
2022-07-27T15:53:18.494Z,1.83
2022-07-27T15:55:45.028Z,1.73
2022-07-27T15:58:13.384Z,1.80
2022-07-27T16:00:41.249Z,1.50
2022-07-27T16:03:09.697Z,1.70
2022-07-27T16:05:37.123Z,1.70
2022-07-27T16:08:03.950Z,1.70
2022-07-27T16:10:31.247Z,1.83
2022-07-27T16:12:57.942Z,1.37
2022-07-27T16:15:44.736Z,1.67
2022-07-27T16:18:11.723Z,1.50
2022-07-27T16:20:38.290Z,1.90
2022-07-27T16:23:19.149Z,1.50
2022-07-27T16:26:07.828Z,1.50
2022-07-27T16:28:46.307Z,1.73
2022-07-27T16:31:14.289Z,1.90
2022-07-27T16:33:43.950Z,1.27
2022-07-27T16:36:10.819Z,1.40
2022-07-27T16:38:39.316Z,1.37
2022-07-27T16:41:17.325Z,1.60
2022-07-27T16:43:43.790Z,1.67
2022-07-27T16:46:10.717Z,1.23
2022-07-27T16:48:42.226Z,1.77
2022-07-27T16:51:11.202Z,1.80
2022-07-27T16:53:42.390Z,1.50
2022-07-27T16:56:09.534Z,1.60
2022-07-27T16:58:36.647Z,1.50
2022-07-27T17:01:03.646Z,2.33
2022-07-27T17:03:30.278Z,1.90
2022-07-27T17:05:59.732Z,1.70
2022-07-27T17:08:29.478Z,1.63
2022-07-27T17:10:55.957Z,1.30
2022-07-27T17:13:22.625Z,1.43
2022-07-27T17:16:00.773Z,1.60
2022-07-27T17:18:28.432Z,1.50
2022-07-27T17:20:55.092Z,1.47
2022-07-27T17:23:21.529Z,1.33
2022-07-27T17:25:48.997Z,1.30
2022-07-27T17:28:16.349Z,1.50
2022-07-27T17:30:43.240Z,1.57
2022-07-27T17:33:09.793Z,1.57
2022-07-27T17:35:36.332Z,1.50
2022-07-27T17:38:06.516Z,1.50
2022-07-27T17:40:34.546Z,1.57
2022-07-27T17:43:02.104Z,1.90
2022-07-27T17:45:29.609Z,1.67
2022-07-27T17:47:56.078Z,1.70
2022-07-27T17:50:22.775Z,1.57
2022-07-27T17:52:50.692Z,1.67
2022-07-27T17:55:17.139Z,1.67
2022-07-27T17:57:44.494Z,1.57
2022-07-27T18:00:11.439Z,1.50
2022-07-27T18:02:37.912Z,1.67
2022-07-27T18:05:04.837Z,1.50
2022-07-27T18:07:39.155Z,1.80
2022-07-27T18:10:08.561Z,1.93
2022-07-27T18:12:35.742Z,1.60
2022-07-27T18:15:21.471Z,1.63
2022-07-27T18:17:48.001Z,1.77
2022-07-27T18:20:14.594Z,1.67
2022-07-27T18:22:41.632Z,1.87
2022-07-27T18:25:09.059Z,1.73
2022-07-27T18:27:35.848Z,1.50
2022-07-27T18:30:05.658Z,1.37
2022-07-27T18:32:33.026Z,1.90
2022-07-27T18:35:02.040Z,1.63
2022-07-27T18:37:29.172Z,1.50
2022-07-27T18:39:55.632Z,1.77
2022-07-27T18:42:22.179Z,1.60
2022-07-27T18:44:48.812Z,1.50
2022-07-27T18:47:15.354Z,1.87
2022-07-27T18:49:41.788Z,1.57
2022-07-27T18:52:08.867Z,1.63
2022-07-27T18:54:35.572Z,1.80
2022-07-27T18:57:02.110Z,1.40
2022-07-27T18:59:29.223Z,1.53
2022-07-27T19:01:56.262Z,1.40
2022-07-27T19:04:24.611Z,1.60
2022-07-27T19:06:52.827Z,1.60
2022-07-27T19:09:19.476Z,1.80
2022-07-27T19:11:45.904Z,1.80
2022-07-27T19:14:12.646Z,1.60
2022-07-27T19:16:39.236Z,1.20
2022-07-27T19:19:08.856Z,1.77
2022-07-27T19:21:39.988Z,1.80
2022-07-27T19:24:06.525Z,1.50
2022-07-27T19:26:33.611Z,1.70
2022-07-27T19:29:00.488Z,1.83
2022-07-27T19:31:28.216Z,1.67
2022-07-27T19:33:56.011Z,1.67
2022-07-27T19:36:23.196Z,1.70
2022-07-27T19:38:50.773Z,2.00
2022-07-27T19:41:18.261Z,1.80
2022-07-27T19:43:44.867Z,1.80
2022-07-27T19:46:11.465Z,1.60
2022-07-27T19:48:38.061Z,1.43
2022-07-27T19:51:06.993Z,1.67
2022-07-27T19:53:35.814Z,1.87
2022-07-27T19:56:03.419Z,2.37
2022-07-27T19:58:31.436Z,1.80
2022-07-27T20:00:58.490Z,1.70
2022-07-27T20:03:25.107Z,1.80
2022-07-27T20:05:51.929Z,1.60
2022-07-27T20:08:19.199Z,1.60
2022-07-27T20:10:47.221Z,1.43
2022-07-27T20:13:14.613Z,1.90
2022-07-27T20:15:41.209Z,1.70
2022-07-27T20:18:07.891Z,1.70
2022-07-27T20:20:34.782Z,1.53
2022-07-27T20:23:02.133Z,1.80
2022-07-27T20:25:28.673Z,1.87
2022-07-27T20:27:55.172Z,1.70
2022-07-27T20:30:21.765Z,1.70
2022-07-27T20:32:48.967Z,1.60
2022-07-27T20:35:16.078Z,1.53
2022-07-27T20:37:44.408Z,1.40
2022-07-27T20:40:11.874Z,1.63
2022-07-27T20:42:41.224Z,1.90
2022-07-27T20:45:10.075Z,1.40
2022-07-27T20:47:40.117Z,1.73
2022-07-27T20:50:14.895Z,1.60
2022-07-27T20:52:42.061Z,1.57
2022-07-27T20:55:10.091Z,1.73
2022-07-27T20:57:36.888Z,2.30
2022-07-27T21:00:06.366Z,2.30
2022-07-27T21:02:33.087Z,1.70
2022-07-27T21:04:59.816Z,1.77
2022-07-27T21:07:28.098Z,1.40
2022-07-27T21:09:54.721Z,1.60
2022-07-27T21:12:21.170Z,1.87
2022-07-27T21:14:47.675Z,1.90
2022-07-27T21:17:14.151Z,1.80
2022-07-27T21:19:40.651Z,1.60
2022-07-27T21:22:07.121Z,1.53
2022-07-27T21:24:33.886Z,1.70
2022-07-27T21:27:05.489Z,1.90
2022-07-27T21:29:33.331Z,1.50
2022-07-27T21:32:00.722Z,1.40
2022-07-27T21:34:27.380Z,1.77
2022-07-27T21:36:53.859Z,1.80
2022-07-27T21:39:20.806Z,1.30
2022-07-27T21:41:47.400Z,1.80
2022-07-27T21:44:14.445Z,1.50
2022-07-27T21:46:41.596Z,1.70
2022-07-27T21:49:08.351Z,1.50
2022-07-27T21:51:34.966Z,1.70
2022-07-27T21:54:01.905Z,1.97
2022-07-27T21:56:28.664Z,1.80
2022-07-27T21:58:55.352Z,1.87
2022-07-27T22:01:22.283Z,1.80
2022-07-27T22:03:49.274Z,1.90
2022-07-27T22:06:16.007Z,1.67
2022-07-27T22:08:43.000Z,1.73
2022-07-27T22:11:10.393Z,1.90
2022-07-27T22:13:36.809Z,1.50
2022-07-27T22:16:04.338Z,1.70
2022-07-27T22:18:31.004Z,1.40
2022-07-27T22:20:58.763Z,1.47
2022-07-27T22:23:25.382Z,1.70
2022-07-27T22:25:52.791Z,1.50
2022-07-27T22:28:19.232Z,1.60
2022-07-27T22:31:20.484Z,1.70
2022-07-27T22:33:37.152Z,1.57
2022-07-27T22:36:06.741Z,1.60
2022-07-27T22:38:33.711Z,1.60
2022-07-27T22:41:00.735Z,1.60
2022-07-27T22:43:27.199Z,1.67
2022-07-27T22:45:55.261Z,1.53
2022-07-27T22:48:21.764Z,1.77
2022-07-27T22:50:48.769Z,1.80
2022-07-27T22:53:15.815Z,1.73
2022-07-27T22:55:42.484Z,1.80
2022-07-27T22:58:08.955Z,1.70
2022-07-27T23:00:35.480Z,1.77
2022-07-27T23:03:02.229Z,1.50
2022-07-27T23:05:29.031Z,1.50
2022-07-27T23:07:55.935Z,1.57
2022-07-27T23:10:41.401Z,1.63
2022-07-27T23:13:08.387Z,1.60
2022-07-27T23:15:37.032Z,1.83
2022-07-27T23:18:03.719Z,1.77
2022-07-27T23:20:30.871Z,1.80
2022-07-27T23:22:58.885Z,1.67
2022-07-27T23:25:36.349Z,1.67
2022-07-27T23:28:04.194Z,1.90
2022-07-27T23:30:31.057Z,1.80
2022-07-27T23:32:57.562Z,1.90
2022-07-27T23:35:24.091Z,1.80
2022-07-27T23:37:50.975Z,1.67
2022-07-27T23:40:17.445Z,1.67
2022-07-27T23:42:44.195Z,2.13
2022-07-27T23:45:11.159Z,1.60
2022-07-27T23:47:37.570Z,2.10
2022-07-27T23:50:04.342Z,1.70
2022-07-27T23:52:30.952Z,1.97
2022-07-27T23:54:58.658Z,1.73
2022-07-27T23:57:25.226Z,1.70
2022-07-27T23:59:52.000Z,1.67
